Mauston, WI (53948)

7:25 AM CDT on October 23, 2014 (GMT -0500)
Juneau County Weather | Change Station
CLOSE
Current Station
Personal Weather Station
Location: Mauston, WI
Elevation: 873 ft
Nearby Weather Stations

Elev 873 ft 43.80 °N, 90.07 °W | Updated 17 seconds ago

Overcast
Overcast
47.4 °F
Feels Like 46 °F
N
3.8
Wind Variable Wind from SE
Gusts 3.8 mph

Today
High -- | Low -- °F
--% Chance of Precip.
Yesterday
High -- | Low -- °F
Precip. -- in
7:24 AM 6:03 PM
Waning Crescent, 0% visible
Pressure 30.12 in
Visibility 10.0 miles
Clouds Overcast 4100 ft
Windchill 46 °F
Dew Point 40 °F
Humidity 76%
Rainfall 0.00 in
Snow Depth Not available.
UV 0.0 out of 12
Pollen .30 out of 12
Air Quality Not available.
Flu Activity Sporadic
METAR KVOK 231158Z AUTO 17005KT 10SM OVC041 09/04 A3009 RMK AO2 SLP198 60000 T00870042 10087 20024 57012

More Conditions Fewer Conditions

Pressure 30.12 in
Visibility 10.0 miles
Clouds Overcast 4100 ft
Windchill 46 °F
Dew Point 40 °F
Humidity 76%
Rainfall 0.00 in
Snow Depth Not available.
UV 0.0 out of 12
Pollen .30 out of 12
Air Quality Not available.
Flu Activity Sporadic
METAR KVOK 231158Z AUTO 17005KT 10SM OVC041 09/04 A3009 RMK AO2 SLP198 60000 T00870042 10087 20024 57012

More Conditions Fewer Conditions

Nowcast | as of 5:40 am CDT on October 23, 2014

Areas of rain can be expected through mid morning. Rainfall totals will be on the light side...less than a quarter inch. There could also be an isolated thunderstorm.

×

10-Day Weather Forecast

Almanac

Astronomy

Oct. 23, 2014 Rise Set
Actual Time 7:24 AM CDT 6:03 PM CDT
Civil Twilight 6:55 AM CDT 6:33 PM CDT
Nautical Twilight 6:21 AM CDT 7:06 PM CDT
Astronomical Twilight 5:48 AM CDT 7:39 PM CDT
Moon 7:03 AM CDT 6:05 PM CDT
Length of Visible Light 11h 37m
Length of Day
10h 39m
Tomorrow will be 2m 48s shorter.
Waning Crescent, 0% of the Moon is Illuminated
Today
Waning Crescent
Oct 23
New
Oct 30
First Quarter
Nov 6
Full
Nov 14
Last Quarter

Today's Extremes

State Highs State Lows

Community

WunderPhotos

Upload Photos

1,764,211 photos uploaded!

WunderBlogs® & News

Nearby

Snow Depth

Station Depth Elevation
No new snow has been reported.

Earthquake Activity

City Distance Mag. Time & Date
No recent earthquake activity has been reported nearby.
Minimum magnitude displayed is 2.5.

Coastal Water Temperatures

Place Temperature
No Stations Reporting

Nearby Weather Stations